sensor_id;sensor_type;location;lat;lon;timestamp;P1;durP1;ratioP1;P2;durP2;ratioP2
76477;SDS011;65309;49.790;18.972;2023-02-18T00:02:12;3.25;;;2.72;;
76477;SDS011;65309;49.790;18.972;2023-02-18T00:07:15;4.32;;;3.45;;
76477;SDS011;65309;49.790;18.972;2023-02-18T00:12:18;5.90;;;3.30;;
76477;SDS011;65309;49.790;18.972;2023-02-18T00:17:20;3.67;;;3.10;;
76477;SDS011;65309;49.790;18.972;2023-02-18T00:22:22;3.85;;;2.45;;
76477;SDS011;65309;49.790;18.972;2023-02-18T00:27:26;4.25;;;3.35;;
76477;SDS011;65309;49.790;18.972;2023-02-18T00:32:28;3.60;;;3.10;;
76477;SDS011;65309;49.790;18.972;2023-02-18T00:37:30;4.43;;;3.42;;
76477;SDS011;65309;49.790;18.972;2023-02-18T00:42:37;4.00;;;3.15;;
76477;SDS011;65309;49.790;18.972;2023-02-18T00:47:39;4.18;;;3.38;;
76477;SDS011;65309;49.790;18.972;2023-02-18T00:52:41;3.00;;;2.33;;
76477;SDS011;65309;49.790;18.972;2023-02-18T00:57:44;3.50;;;2.53;;
76477;SDS011;65309;49.790;18.972;2023-02-18T01:02:46;3.90;;;2.00;;
76477;SDS011;65309;49.790;18.972;2023-02-18T01:07:49;3.50;;;2.55;;
76477;SDS011;65309;49.790;18.972;2023-02-18T01:12:52;2.75;;;2.40;;
76477;SDS011;65309;49.790;18.972;2023-02-18T01:17:54;2.88;;;2.30;;
76477;SDS011;65309;49.790;18.972;2023-02-18T01:22:56;2.85;;;2.42;;
76477;SDS011;65309;49.790;18.972;2023-02-18T01:28:00;2.75;;;2.15;;
76477;SDS011;65309;49.790;18.972;2023-02-18T01:33:02;2.78;;;2.35;;
76477;SDS011;65309;49.790;18.972;2023-02-18T01:38:04;2.15;;;1.65;;
76477;SDS011;65309;49.790;18.972;2023-02-18T01:43:09;3.38;;;2.95;;
76477;SDS011;65309;49.790;18.972;2023-02-18T01:48:13;2.92;;;1.88;;
76477;SDS011;65309;49.790;18.972;2023-02-18T01:53:19;2.42;;;1.90;;
76477;SDS011;65309;49.790;18.972;2023-02-18T01:58:25;3.85;;;2.05;;
76477;SDS011;65309;49.790;18.972;2023-02-18T02:03:28;3.25;;;2.67;;
76477;SDS011;65309;49.790;18.972;2023-02-18T02:08:30;3.85;;;2.53;;
76477;SDS011;65309;49.790;18.972;2023-02-18T02:13:36;3.25;;;2.28;;
76477;SDS011;65309;49.790;18.972;2023-02-18T02:18:53;3.33;;;2.13;;
76477;SDS011;65309;49.790;18.972;2023-02-18T02:30:03;4.70;;;2.35;;
76477;SDS011;65309;49.790;18.972;2023-02-18T02:35:20;3.60;;;2.08;;
76477;SDS011;65309;49.790;18.972;2023-02-18T02:40:27;4.78;;;2.95;;
76477;SDS011;65309;49.790;18.972;2023-02-18T02:45:39;3.88;;;2.45;;
76477;SDS011;65309;49.790;18.972;2023-02-18T02:50:51;4.50;;;2.38;;
76477;SDS011;65309;49.790;18.972;2023-02-18T02:55:59;3.15;;;1.90;;
76477;SDS011;65309;49.790;18.972;2023-02-18T03:06:29;4.90;;;2.50;;
76477;SDS011;65309;49.790;18.972;2023-02-18T03:11:46;3.85;;;2.45;;
76477;SDS011;65309;49.790;18.972;2023-02-18T03:16:59;4.35;;;2.60;;
76477;SDS011;65309;49.790;18.972;2023-02-18T03:22:06;3.35;;;2.05;;
76477;SDS011;65309;49.790;18.972;2023-02-18T03:27:13;5.20;;;3.10;;
76477;SDS011;65309;49.790;18.972;2023-02-18T03:32:19;4.47;;;2.83;;
76477;SDS011;65309;49.790;18.972;2023-02-18T03:37:25;4.07;;;2.25;;
76477;SDS011;65309;49.790;18.972;2023-02-18T03:42:28;4.10;;;2.70;;
76477;SDS011;65309;49.790;18.972;2023-02-18T03:47:30;2.97;;;2.15;;
76477;SDS011;65309;49.790;18.972;2023-02-18T03:52:34;4.63;;;3.33;;
76477;SDS011;65309;49.790;18.972;2023-02-18T03:57:37;2.80;;;2.05;;
76477;SDS011;65309;49.790;18.972;2023-02-18T04:02:39;2.08;;;1.52;;
76477;SDS011;65309;49.790;18.972;2023-02-18T04:07:43;3.10;;;2.30;;
76477;SDS011;65309;49.790;18.972;2023-02-18T04:12:45;4.25;;;2.95;;
76477;SDS011;65309;49.790;18.972;2023-02-18T04:17:47;5.80;;;3.15;;
76477;SDS011;65309;49.790;18.972;2023-02-18T04:22:50;3.08;;;2.30;;
76477;SDS011;65309;49.790;18.972;2023-02-18T04:32:54;3.25;;;2.17;;
76477;SDS011;65309;49.790;18.972;2023-02-18T04:37:57;2.90;;;2.33;;
76477;SDS011;65309;49.790;18.972;2023-02-18T04:48:01;4.57;;;2.20;;
76477;SDS011;65309;49.790;18.972;2023-02-18T04:53:05;1.98;;;1.60;;
76477;SDS011;65309;49.790;18.972;2023-02-18T05:03:10;2.60;;;1.27;;
76477;SDS011;65309;49.790;18.972;2023-02-18T05:08:14;4.60;;;2.20;;
76477;SDS011;65309;49.790;18.972;2023-02-18T05:13:16;2.90;;;1.70;;
76477;SDS011;65309;49.790;18.972;2023-02-18T05:18:19;2.00;;;1.25;;
76477;SDS011;65309;49.790;18.972;2023-02-18T05:23:22;5.80;;;2.10;;
76477;SDS011;65309;49.790;18.972;2023-02-18T05:28:26;2.97;;;1.27;;
76477;SDS011;65309;49.790;18.972;2023-02-18T05:33:28;2.55;;;1.83;;
76477;SDS011;65309;49.790;18.972;2023-02-18T05:38:31;2.08;;;1.42;;
76477;SDS011;65309;49.790;18.972;2023-02-18T05:43:33;3.63;;;1.70;;
76477;SDS011;65309;49.790;18.972;2023-02-18T05:48:56;3.45;;;2.00;;
76477;SDS011;65309;49.790;18.972;2023-02-18T05:54:00;2.88;;;1.67;;
76477;SDS011;65309;49.790;18.972;2023-02-18T05:59:02;2.20;;;1.63;;
76477;SDS011;65309;49.790;18.972;2023-02-18T06:04:04;4.53;;;2.40;;
76477;SDS011;65309;49.790;18.972;2023-02-18T06:09:08;6.32;;;2.95;;
76477;SDS011;65309;49.790;18.972;2023-02-18T06:14:10;5.32;;;2.65;;
76477;SDS011;65309;49.790;18.972;2023-02-18T06:19:12;6.40;;;2.92;;
76477;SDS011;65309;49.790;18.972;2023-02-18T06:24:16;6.15;;;2.78;;
76477;SDS011;65309;49.790;18.972;2023-02-18T06:29:18;7.25;;;3.28;;
76477;SDS011;65309;49.790;18.972;2023-02-18T06:34:20;5.07;;;3.25;;
76477;SDS011;65309;49.790;18.972;2023-02-18T06:39:23;3.60;;;2.53;;
76477;SDS011;65309;49.790;18.972;2023-02-18T06:45:24;2.33;;;1.63;;
76477;SDS011;65309;49.790;18.972;2023-02-18T06:50:26;3.15;;;2.00;;
76477;SDS011;65309;49.790;18.972;2023-02-18T06:55:29;5.15;;;2.85;;
76477;SDS011;65309;49.790;18.972;2023-02-18T07:00:31;5.07;;;3.30;;
76477;SDS011;65309;49.790;18.972;2023-02-18T07:05:33;5.60;;;2.80;;
76477;SDS011;65309;49.790;18.972;2023-02-18T07:10:37;5.47;;;3.75;;
76477;SDS011;65309;49.790;18.972;2023-02-18T07:15:39;5.25;;;2.85;;
76477;SDS011;65309;49.790;18.972;2023-02-18T07:20:41;4.53;;;3.08;;
76477;SDS011;65309;49.790;18.972;2023-02-18T07:25:45;3.38;;;2.47;;
76477;SDS011;65309;49.790;18.972;2023-02-18T07:30:47;7.45;;;3.83;;
76477;SDS011;65309;49.790;18.972;2023-02-18T07:35:51;5.28;;;3.63;;
76477;SDS011;65309;49.790;18.972;2023-02-18T07:40:55;9.52;;;4.18;;
76477;SDS011;65309;49.790;18.972;2023-02-18T07:45:58;6.45;;;3.88;;
76477;SDS011;65309;49.790;18.972;2023-02-18T07:51:00;7.90;;;4.15;;
76477;SDS011;65309;49.790;18.972;2023-02-18T07:56:07;6.60;;;4.47;;
76477;SDS011;65309;49.790;18.972;2023-02-18T08:01:10;7.05;;;4.65;;
76477;SDS011;65309;49.790;18.972;2023-02-18T08:06:19;7.88;;;4.88;;
76477;SDS011;65309;49.790;18.972;2023-02-18T08:11:24;7.28;;;5.68;;
76477;SDS011;65309;49.790;18.972;2023-02-18T08:16:26;7.95;;;4.43;;
76477;SDS011;65309;49.790;18.972;2023-02-18T08:21:28;6.90;;;5.25;;
76477;SDS011;65309;49.790;18.972;2023-02-18T08:26:33;4.82;;;3.55;;
76477;SDS011;65309;49.790;18.972;2023-02-18T08:31:35;5.35;;;3.92;;
76477;SDS011;65309;49.790;18.972;2023-02-18T08:36:37;14.23;;;7.63;;
76477;SDS011;65309;49.790;18.972;2023-02-18T08:41:40;9.65;;;6.07;;
76477;SDS011;65309;49.790;18.972;2023-02-18T08:46:42;10.07;;;6.13;;
76477;SDS011;65309;49.790;18.972;2023-02-18T08:51:45;7.18;;;3.78;;
76477;SDS011;65309;49.790;18.972;2023-02-18T08:56:48;9.07;;;3.42;;
76477;SDS011;65309;49.790;18.972;2023-02-18T09:01:50;7.75;;;4.70;;
76477;SDS011;65309;49.790;18.972;2023-02-18T09:06:56;10.23;;;4.47;;
76477;SDS011;65309;49.790;18.972;2023-02-18T09:11:59;7.05;;;4.35;;
76477;SDS011;65309;49.790;18.972;2023-02-18T09:17:01;8.13;;;4.53;;
76477;SDS011;65309;49.790;18.972;2023-02-18T09:22:03;8.05;;;4.10;;
76477;SDS011;65309;49.790;18.972;2023-02-18T09:27:07;6.70;;;3.47;;
76477;SDS011;65309;49.790;18.972;2023-02-18T09:32:11;8.10;;;4.32;;
76477;SDS011;65309;49.790;18.972;2023-02-18T09:37:26;4.93;;;3.72;;
76477;SDS011;65309;49.790;18.972;2023-02-18T09:42:30;7.88;;;3.88;;
76477;SDS011;65309;49.790;18.972;2023-02-18T09:47:35;5.45;;;3.67;;
76477;SDS011;65309;49.790;18.972;2023-02-18T09:52:39;2.67;;;1.73;;
76477;SDS011;65309;49.790;18.972;2023-02-18T09:57:44;6.00;;;2.35;;
76477;SDS011;65309;49.790;18.972;2023-02-18T10:02:49;6.00;;;3.17;;
76477;SDS011;65309;49.790;18.972;2023-02-18T10:07:57;7.38;;;4.45;;
76477;SDS011;65309;49.790;18.972;2023-02-18T10:13:05;7.30;;;3.35;;
76477;SDS011;65309;49.790;18.972;2023-02-18T10:18:18;8.40;;;3.38;;
76477;SDS011;65309;49.790;18.972;2023-02-18T10:23:24;7.57;;;2.28;;
76477;SDS011;65309;49.790;18.972;2023-02-18T10:28:31;3.20;;;2.10;;
76477;SDS011;65309;49.790;18.972;2023-02-18T10:33:38;3.05;;;2.10;;
76477;SDS011;65309;49.790;18.972;2023-02-18T10:38:53;2.30;;;1.77;;
76477;SDS011;65309;49.790;18.972;2023-02-18T10:44:09;4.30;;;2.53;;
76477;SDS011;65309;49.790;18.972;2023-02-18T10:49:28;3.08;;;1.98;;
76477;SDS011;65309;49.790;18.972;2023-02-18T10:54:49;8.32;;;3.50;;
76477;SDS011;65309;49.790;18.972;2023-02-18T10:59:57;5.95;;;3.25;;
76477;SDS011;65309;49.790;18.972;2023-02-18T11:05:04;4.63;;;3.47;;
76477;SDS011;65309;49.790;18.972;2023-02-18T11:10:17;5.63;;;3.17;;
76477;SDS011;65309;49.790;18.972;2023-02-18T11:15:24;10.45;;;4.75;;
76477;SDS011;65309;49.790;18.972;2023-02-18T11:20:29;6.07;;;3.15;;
76477;SDS011;65309;49.790;18.972;2023-02-18T11:25:33;7.05;;;3.88;;
76477;SDS011;65309;49.790;18.972;2023-02-18T11:30:38;10.65;;;5.47;;
76477;SDS011;65309;49.790;18.972;2023-02-18T11:35:46;11.40;;;5.32;;
76477;SDS011;65309;49.790;18.972;2023-02-18T11:40:53;16.10;;;10.85;;
76477;SDS011;65309;49.790;18.972;2023-02-18T11:46:08;22.77;;;11.18;;
76477;SDS011;65309;49.790;18.972;2023-02-18T11:51:15;6.55;;;3.88;;
76477;SDS011;65309;49.790;18.972;2023-02-18T11:56:19;20.45;;;9.57;;
76477;SDS011;65309;49.790;18.972;2023-02-18T12:01:26;6.68;;;5.32;;
76477;SDS011;65309;49.790;18.972;2023-02-18T12:06:41;7.07;;;4.45;;
76477;SDS011;65309;49.790;18.972;2023-02-18T12:11:48;7.70;;;4.15;;
76477;SDS011;65309;49.790;18.972;2023-02-18T12:17:00;6.47;;;3.47;;
76477;SDS011;65309;49.790;18.972;2023-02-18T12:22:17;7.22;;;4.97;;
76477;SDS011;65309;49.790;18.972;2023-02-18T12:27:23;8.20;;;3.80;;
76477;SDS011;65309;49.790;18.972;2023-02-18T12:32:35;11.15;;;5.05;;
76477;SDS011;65309;49.790;18.972;2023-02-18T12:37:56;6.35;;;4.15;;
76477;SDS011;65309;49.790;18.972;2023-02-18T12:43:24;9.35;;;5.07;;
76477;SDS011;65309;49.790;18.972;2023-02-18T12:48:39;8.82;;;5.43;;
76477;SDS011;65309;49.790;18.972;2023-02-18T12:53:55;10.07;;;5.55;;
76477;SDS011;65309;49.790;18.972;2023-02-18T12:59:10;5.25;;;4.18;;
76477;SDS011;65309;49.790;18.972;2023-02-18T13:04:24;5.78;;;4.22;;
76477;SDS011;65309;49.790;18.972;2023-02-18T13:09:41;4.18;;;3.35;;
76477;SDS011;65309;49.790;18.972;2023-02-18T13:14:53;4.63;;;3.50;;
76477;SDS011;65309;49.790;18.972;2023-02-18T13:20:04;5.55;;;3.90;;
76477;SDS011;65309;49.790;18.972;2023-02-18T13:25:15;2.78;;;2.13;;
76477;SDS011;65309;49.790;18.972;2023-02-18T13:30:21;5.82;;;4.82;;
76477;SDS011;65309;49.790;18.972;2023-02-18T13:35:30;3.83;;;2.92;;
76477;SDS011;65309;49.790;18.972;2023-02-18T13:40:36;7.03;;;3.33;;
76477;SDS011;65309;49.790;18.972;2023-02-18T13:45:38;5.25;;;4.03;;
76477;SDS011;65309;49.790;18.972;2023-02-18T13:50:42;3.08;;;2.42;;
76477;SDS011;65309;49.790;18.972;2023-02-18T13:55:45;3.78;;;2.88;;
76477;SDS011;65309;49.790;18.972;2023-02-18T14:00:55;6.63;;;3.38;;
76477;SDS011;65309;49.790;18.972;2023-02-18T14:06:13;4.43;;;2.88;;
76477;SDS011;65309;49.790;18.972;2023-02-18T14:11:29;4.47;;;3.45;;
76477;SDS011;65309;49.790;18.972;2023-02-18T14:27:34;5.25;;;3.20;;
76477;SDS011;65309;49.790;18.972;2023-02-18T14:32:38;4.82;;;3.67;;
76477;SDS011;65309;49.790;18.972;2023-02-18T14:37:48;5.28;;;3.38;;
76477;SDS011;65309;49.790;18.972;2023-02-18T14:43:19;2.78;;;1.95;;
76477;SDS011;65309;49.790;18.972;2023-02-18T14:48:36;3.95;;;2.92;;
76477;SDS011;65309;49.790;18.972;2023-02-18T14:53:47;3.47;;;2.38;;
76477;SDS011;65309;49.790;18.972;2023-02-18T14:58:50;2.10;;;1.45;;
76477;SDS011;65309;49.790;18.972;2023-02-18T15:03:56;5.03;;;2.50;;
76477;SDS011;65309;49.790;18.972;2023-02-18T15:09:00;2.65;;;2.00;;
76477;SDS011;65309;49.790;18.972;2023-02-18T15:14:13;3.58;;;2.00;;
76477;SDS011;65309;49.790;18.972;2023-02-18T15:19:19;3.03;;;2.30;;
76477;SDS011;65309;49.790;18.972;2023-02-18T15:24:29;4.78;;;3.78;;
76477;SDS011;65309;49.790;18.972;2023-02-18T15:29:34;5.63;;;4.00;;
76477;SDS011;65309;49.790;18.972;2023-02-18T15:34:37;6.22;;;4.78;;
76477;SDS011;65309;49.790;18.972;2023-02-18T15:39:41;4.85;;;3.38;;
76477;SDS011;65309;49.790;18.972;2023-02-18T15:44:45;5.15;;;3.88;;
76477;SDS011;65309;49.790;18.972;2023-02-18T15:49:50;5.13;;;3.85;;
76477;SDS011;65309;49.790;18.972;2023-02-18T15:54:59;6.90;;;4.55;;
76477;SDS011;65309;49.790;18.972;2023-02-18T16:00:05;3.83;;;3.35;;
76477;SDS011;65309;49.790;18.972;2023-02-18T16:05:15;6.82;;;4.13;;
76477;SDS011;65309;49.790;18.972;2023-02-18T16:10:21;7.38;;;5.20;;
76477;SDS011;65309;49.790;18.972;2023-02-18T16:15:25;4.75;;;4.20;;
76477;SDS011;65309;49.790;18.972;2023-02-18T16:20:30;4.20;;;3.65;;
76477;SDS011;65309;49.790;18.972;2023-02-18T16:25:38;5.88;;;4.50;;
76477;SDS011;65309;49.790;18.972;2023-02-18T16:30:43;6.05;;;3.92;;
76477;SDS011;65309;49.790;18.972;2023-02-18T16:35:46;3.60;;;2.78;;
76477;SDS011;65309;49.790;18.972;2023-02-18T16:40:52;4.97;;;4.13;;
76477;SDS011;65309;49.790;18.972;2023-02-18T16:45:56;6.18;;;4.40;;
76477;SDS011;65309;49.790;18.972;2023-02-18T16:51:12;7.10;;;4.90;;
76477;SDS011;65309;49.790;18.972;2023-02-18T16:56:19;4.57;;;3.75;;
76477;SDS011;65309;49.790;18.972;2023-02-18T17:01:24;6.35;;;5.38;;
76477;SDS011;65309;49.790;18.972;2023-02-18T17:06:28;3.08;;;2.80;;
76477;SDS011;65309;49.790;18.972;2023-02-18T17:11:32;7.35;;;4.85;;
76477;SDS011;65309;49.790;18.972;2023-02-18T17:16:35;6.53;;;4.03;;
76477;SDS011;65309;49.790;18.972;2023-02-18T17:21:37;5.38;;;3.85;;
76477;SDS011;65309;49.790;18.972;2023-02-18T17:26:41;5.35;;;4.13;;
76477;SDS011;65309;49.790;18.972;2023-02-18T17:31:44;5.38;;;4.22;;
76477;SDS011;65309;49.790;18.972;2023-02-18T17:36:48;8.40;;;5.10;;
76477;SDS011;65309;49.790;18.972;2023-02-18T17:41:51;7.72;;;5.65;;
76477;SDS011;65309;49.790;18.972;2023-02-18T17:46:53;6.38;;;5.43;;
76477;SDS011;65309;49.790;18.972;2023-02-18T17:51:55;6.20;;;4.72;;
76477;SDS011;65309;49.790;18.972;2023-02-18T17:57:00;6.90;;;6.07;;
76477;SDS011;65309;49.790;18.972;2023-02-18T18:02:02;5.68;;;3.58;;
76477;SDS011;65309;49.790;18.972;2023-02-18T18:07:04;6.43;;;4.57;;
76477;SDS011;65309;49.790;18.972;2023-02-18T18:12:08;7.18;;;4.75;;
76477;SDS011;65309;49.790;18.972;2023-02-18T18:17:14;5.45;;;4.10;;
76477;SDS011;65309;49.790;18.972;2023-02-18T18:22:16;7.88;;;4.43;;
76477;SDS011;65309;49.790;18.972;2023-02-18T18:27:20;10.43;;;5.55;;
76477;SDS011;65309;49.790;18.972;2023-02-18T18:32:22;6.93;;;5.30;;
76477;SDS011;65309;49.790;18.972;2023-02-18T18:37:24;6.25;;;4.13;;
76477;SDS011;65309;49.790;18.972;2023-02-18T18:42:27;10.88;;;5.30;;
76477;SDS011;65309;49.790;18.972;2023-02-18T18:47:29;5.28;;;3.90;;
76477;SDS011;65309;49.790;18.972;2023-02-18T18:52:31;7.70;;;5.28;;
76477;SDS011;65309;49.790;18.972;2023-02-18T18:57:34;12.20;;;4.15;;
76477;SDS011;65309;49.790;18.972;2023-02-18T19:07:38;5.28;;;3.45;;
76477;SDS011;65309;49.790;18.972;2023-02-18T19:12:42;5.25;;;4.35;;
76477;SDS011;65309;49.790;18.972;2023-02-18T19:17:48;5.20;;;4.13;;
76477;SDS011;65309;49.790;18.972;2023-02-18T19:22:52;7.80;;;3.90;;
76477;SDS011;65309;49.790;18.972;2023-02-18T19:27:55;5.40;;;3.78;;
76477;SDS011;65309;49.790;18.972;2023-02-18T19:32:58;5.40;;;4.10;;
76477;SDS011;65309;49.790;18.972;2023-02-18T19:38:01;5.55;;;3.70;;
76477;SDS011;65309;49.790;18.972;2023-02-18T19:43:05;5.32;;;3.65;;
76477;SDS011;65309;49.790;18.972;2023-02-18T19:48:08;5.00;;;3.40;;
76477;SDS011;65309;49.790;18.972;2023-02-18T19:53:10;7.45;;;5.20;;
76477;SDS011;65309;49.790;18.972;2023-02-18T19:58:14;5.32;;;3.25;;
76477;SDS011;65309;49.790;18.972;2023-02-18T20:03:16;2.95;;;2.22;;
76477;SDS011;65309;49.790;18.972;2023-02-18T20:08:18;5.00;;;3.55;;
76477;SDS011;65309;49.790;18.972;2023-02-18T20:13:21;3.85;;;2.72;;
76477;SDS011;65309;49.790;18.972;2023-02-18T20:18:24;3.83;;;2.85;;
76477;SDS011;65309;49.790;18.972;2023-02-18T20:23:26;3.15;;;2.47;;
76477;SDS011;65309;49.790;18.972;2023-02-18T20:28:29;3.50;;;2.65;;
76477;SDS011;65309;49.790;18.972;2023-02-18T20:33:31;4.55;;;2.92;;
76477;SDS011;65309;49.790;18.972;2023-02-18T20:38:34;4.25;;;2.58;;
76477;SDS011;65309;49.790;18.972;2023-02-18T20:43:38;3.08;;;1.80;;
76477;SDS011;65309;49.790;18.972;2023-02-18T20:48:40;2.30;;;2.10;;
76477;SDS011;65309;49.790;18.972;2023-02-18T20:53:43;3.17;;;2.65;;
76477;SDS011;65309;49.790;18.972;2023-02-18T21:03:50;4.20;;;1.50;;
76477;SDS011;65309;49.790;18.972;2023-02-18T21:08:52;3.72;;;1.85;;
76477;SDS011;65309;49.790;18.972;2023-02-18T21:18:58;3.22;;;1.70;;
76477;SDS011;65309;49.790;18.972;2023-02-18T21:24:01;2.03;;;1.30;;
76477;SDS011;65309;49.790;18.972;2023-02-18T21:29:05;2.30;;;1.85;;
76477;SDS011;65309;49.790;18.972;2023-02-18T21:34:10;1.60;;;1.30;;
76477;SDS011;65309;49.790;18.972;2023-02-18T21:39:13;1.55;;;1.10;;
76477;SDS011;65309;49.790;18.972;2023-02-18T21:44:17;1.80;;;1.40;;
76477;SDS011;65309;49.790;18.972;2023-02-18T21:49:20;1.52;;;1.42;;
76477;SDS011;65309;49.790;18.972;2023-02-18T21:54:24;2.90;;;2.13;;
76477;SDS011;65309;49.790;18.972;2023-02-18T21:59:29;3.13;;;1.83;;
76477;SDS011;65309;49.790;18.972;2023-02-18T22:04:33;4.85;;;2.22;;
76477;SDS011;65309;49.790;18.972;2023-02-18T22:09:37;2.50;;;2.08;;
76477;SDS011;65309;49.790;18.972;2023-02-18T22:14:41;1.92;;;1.73;;
76477;SDS011;65309;49.790;18.972;2023-02-18T22:19:44;3.20;;;1.60;;
76477;SDS011;65309;49.790;18.972;2023-02-18T22:24:46;2.30;;;1.50;;
76477;SDS011;65309;49.790;18.972;2023-02-18T22:29:51;1.77;;;1.48;;
76477;SDS011;65309;49.790;18.972;2023-02-18T22:34:54;2.42;;;1.48;;
76477;SDS011;65309;49.790;18.972;2023-02-18T22:39:56;2.53;;;1.73;;
76477;SDS011;65309;49.790;18.972;2023-02-18T22:44:59;3.15;;;1.65;;
76477;SDS011;65309;49.790;18.972;2023-02-18T22:50:03;2.55;;;1.85;;
76477;SDS011;65309;49.790;18.972;2023-02-18T22:55:06;2.35;;;1.75;;
76477;SDS011;65309;49.790;18.972;2023-02-18T23:00:10;2.55;;;1.77;;
76477;SDS011;65309;49.790;18.972;2023-02-18T23:05:13;2.13;;;1.90;;
76477;SDS011;65309;49.790;18.972;2023-02-18T23:10:15;3.28;;;2.20;;
76477;SDS011;65309;49.790;18.972;2023-02-18T23:15:19;2.47;;;1.88;;
76477;SDS011;65309;49.790;18.972;2023-02-18T23:25:43;2.55;;;2.17;;
76477;SDS011;65309;49.790;18.972;2023-02-18T23:30:46;3.08;;;2.60;;
76477;SDS011;65309;49.790;18.972;2023-02-18T23:35:48;2.38;;;1.90;;
76477;SDS011;65309;49.790;18.972;2023-02-18T23:40:50;3.60;;;2.05;;
76477;SDS011;65309;49.790;18.972;2023-02-18T23:45:54;3.63;;;2.45;;
76477;SDS011;65309;49.790;18.972;2023-02-18T23:56:02;4.32;;;3.30;;
